Flight Track Log - Related Links

Times and Time Zones

All times are in EDT time to prevent confusion due to time zone crossing. See the AAL532 flight status page for this flight to view local times or setup timezone preferences in your user account.

Time Position Orientation Groundspeed Altitude Reporting Facility
EDT Latitude Longitude Course Direction KTS MPH feet Rate Location/Type
Sun 11:17:22 PM 41.9500 -87.9167 85° East 172 198 1,700  Level Chicago TRACON
Sun 11:18:16 PM 41.9000 -87.8833 154° Southeast 210 242 3,400 1,889 Climbing Chicago TRACON
Sun 11:19:00 PM 41.9547 -87.4229 96° East  Level FlightAware Approximate
Sun 11:19:10 PM 41.9000 -87.8000 90° East 260 299 5,100  Level Chicago TRACON
Sun 11:20:00 PM 41.9427 -87.2644 95° East  Level FlightAware Approximate
Sun 11:20:54 PM 41.9008 -87.6433 90° East 277 319 8,300  Level Chicago Center
Sun 11:21:00 PM 41.9333 -87.1057 90° East  Level FlightAware Approximate
Sun 11:21:55 PM 41.9108 -87.5342 83° East 293 337 10,900  Level Chicago Center
Sun 11:22:00 PM 41.9346 -86.9465 85° East  Level FlightAware Approximate
Sun 11:22:56 PM 41.9217 -87.4058 83° East 345 397 12,500  Level Chicago Center
Sun 11:23:56 PM 41.9317 -87.2675 84° East 365 420 15,200 2,678 Climbing Chicago Center
Sun 11:24:57 PM 41.9425 -87.1192 84° East 390 449 17,900 2,852 Climbing Chicago Center
Sun 11:25:58 PM 41.9444 -86.9353 89° East 410 472 21,000 2,557 Climbing Chicago Center
Sun 11:26:59 PM 41.9258 -86.7758 99° East 430 495 23,100 2,231 Climbing Chicago Center
Sun 11:27:59 PM 41.9036 -86.6100 100° East 444 511 25,500 2,132 Climbing Chicago Center
Sun 11:29:00 PM 41.8819 -86.4453 100° East 449 517 27,400 1,672 Climbing Chicago Center
Sun 11:30:01 PM 41.8611 -86.2747 99° East 458 527 28,900 1,574 Climbing Chicago Center
Sun 11:31:02 PM 41.8400 -86.1011 99° East 470 541 30,600 1,672 Climbing Chicago Center
Sun 11:32:03 PM 41.8189 -85.9275 99° East 471 542 32,300 1,686 Climbing Chicago Center
Sun 11:33:03 PM 41.7967 -85.7544 100° East 471 542 34,000 1,636 Climbing Chicago Center
Sun 11:34:04 PM 41.7744 -85.5839 100° East 464 534 35,600 1,328 Climbing Chicago Center
Sun 11:35:05 PM 41.7517 -85.4094 100° East 463 533 36,700 694 Climbing Chicago Center
Sun 11:36:05 PM 41.7275 -85.2356 100° East 463 533 37,000 149 Climbing Chicago Center
Sun 11:37:06 PM 41.7050 -85.0611 100° East 471 542 37,000  Level Chicago Center
Sun 11:37:33 PM 41.6956 -84.9969 101° East 460 529 37,000  Level Cleveland Center
Sun 11:38:33 PM 41.6625 -84.8250 104° East 465 535 37,000  Level Cleveland Center
Sun 11:39:33 PM 41.6036 -84.6683 117° Southeast 470 541 37,000  Level Cleveland Center
Sun 11:40:08 PM 41.5633 -84.5697 119° Southeast 479 551 37,000  Level Chicago Center
Sun 11:40:33 PM 41.5364 -84.4978 117° Southeast 470 541 37,000  Level Cleveland Center
Sun 11:41:33 PM 41.4750 -84.3414 118° Southeast 470 541 37,000  Level Cleveland Center
Sun 11:42:33 PM 41.4131 -84.1911 119° Southeast 470 541 37,000  Level Cleveland Center
Sun 11:43:33 PM 41.3533 -84.0328 117° Southeast 470 541 37,000  Level Cleveland Center
Sun 11:44:33 PM 41.2953 -83.8806 117° Southeast 470 541 37,000  Level Cleveland Center
Sun 11:45:33 PM 41.2308 -83.7308 120° Southeast 465 535 37,000  Level Cleveland Center
Sun 11:46:33 PM 41.1683 -83.5733 118° Southeast 471 542 37,000  Level Cleveland Center
Sun 11:47:33 PM 41.1075 -83.4189 118° Southeast 471 542 37,000  Level Cleveland Center
Sun 11:48:33 PM 41.0508 -83.2650 116° Southeast 461 531 37,000  Level Cleveland Center
Sun 11:49:33 PM 40.9894 -83.1250 120° Southeast 473 544 37,000  Level Cleveland Center
Sun 11:50:33 PM 40.9200 -82.9600 119° Southeast 473 544 37,000  Level Cleveland Center
Sun 11:51:33 PM 40.8564 -82.8014 118° Southeast 479 551 37,000  Level Cleveland Center
Sun 11:53:45 PM 40.7228 -82.4761 118° Southeast 483 556 37,000  Level Cleveland Center
Sun 11:54:45 PM 40.6525 -82.3072 119° Southeast 488 562 37,000  Level Cleveland Center
Sun 11:55:45 PM 40.5878 -82.1553 119° Southeast 483 556 37,000  Level Cleveland Center
Sun 11:56:45 PM 40.5231 -82.0006 119° Southeast 483 556 37,000  Level Cleveland Center
Sun 11:57:45 PM 40.4583 -81.8464 119° Southeast 483 556 37,000  Level Cleveland Center
Sun 11:58:45 PM 40.3911 -81.6925 120° Southeast 483 556 37,000  Level Cleveland Center
Sun 11:59:45 PM 40.3258 -81.5361 119° Southeast 483 556 37,000  Level Cleveland Center
Mon 12:00:45 AM 40.2644 -81.3858 118° Southeast 483 556 37,000  Level Cleveland Center
Mon 12:01:45 AM 40.2008 -81.2328 119° Southeast 483 556 37,000  Level Cleveland Center
Mon 12:02:45 AM 40.1347 -81.0856 120° Southeast 478 550 37,000  Level Cleveland Center
Mon 12:03:45 AM 40.0708 -80.9331 119° Southeast 478 550 37,000  Level Cleveland Center
Mon 12:04:45 AM 39.9981 -80.7917 124° Southeast 478 550 37,000  Level Cleveland Center
Mon 12:06:26 AM 39.8558 -80.5894 132° Southeast 472 543 37,000  Level Washington Center
Mon 12:07:25 AM 39.7953 -80.4394 118° Southeast 472 543 37,000  Level Washington Center
Mon 12:08:25 AM 39.7456 -80.2739 111° Southeast 477 549 37,000  Level Washington Center
Mon 12:09:26 AM 39.6978 -80.1064 110° East 483 556 37,000  Level Washington Center
Mon 12:10:26 AM 39.6519 -79.9417 110° East 488 562 37,000  Level Washington Center
Mon 12:11:24 AM 39.6036 -79.7772 111° Southeast 488 562 37,000 -252 Level Washington Center
Mon 12:12:25 AM 39.5567 -79.6236 112° Southeast 493 567 36,500 -1,700 Descending Washington Center
Mon 12:13:24 AM 39.5058 -79.4567 111° Southeast 498 573 33,600 -3,100 Descending Washington Center
Mon 12:14:25 AM 39.4472 -79.2681 112° Southeast 505 581 30,300 -2,579 Descending Washington Center
Mon 12:15:25 AM 39.4033 -79.1342 113° Southeast 505 581 28,400 -2,066 Descending Washington Center
Mon 12:16:27 AM 39.3500 -78.9572 111° Southeast 498 573 26,100 -2,331 Descending Washington Center
Mon 12:17:26 AM 39.3019 -78.8047 112° Southeast 479 551 23,700 -2,379 Descending Washington Center
Mon 12:18:23 AM 39.2578 -78.6608 112° Southeast 452 520 21,500 -2,237 Descending Washington Center
Mon 12:19:24 AM 39.2156 -78.5225 111° Southeast 425 489 19,300 -2,033 Descending Washington Center
Mon 12:20:24 AM 39.1706 -78.3894 114° Southeast 410 472 17,400 -1,550 Descending Washington Center
Mon 12:21:24 AM 39.1381 -78.2622 108° East 395 455 16,200 -1,240 Descending Washington Center
Mon 12:22:25 AM 39.1075 -78.1408 108° East 373 429 14,900 -1,230 Descending Washington Center
Mon 12:23:26 AM 39.0764 -78.0194 108° East 363 418 13,700 -1,220 Descending Washington Center
Mon 12:24:23 AM 39.0456 -77.9008 108° East 358 412 12,500 -1,210 Descending Washington Center
Mon 12:25:25 AM 39.0183 -77.7903 108° East 332 382 11,300 -1,050 Descending Washington Center
Mon 12:26:23 AM 38.9872 -77.6747 109° East 314 361 10,400 -911 Descending Washington Center
Mon 12:27:17 AM 38.9667 -77.5833 106° East 283 326 9,600 -900 Descending Potomac TRACON
Mon 12:28:23 AM 38.9500 -77.4833 102° East 254 292 8,600 -1,286 Descending Potomac TRACON
Mon 12:29:23 AM 39.0000 -77.4000 52° Northeast 279 321 6,900 -1,400 Descending Potomac TRACON
Mon 12:30:23 AM 39.0500 -77.3333 46° Northeast 278 320 5,800 -750 Descending Potomac TRACON
Mon 12:31:23 AM 39.0500 -77.2667 90° East 200 230 5,400 -700 Descending Potomac TRACON
Mon 12:32:23 AM 39.0333 -77.2167 113° Southeast 167 192 4,400 -1,000 Descending Potomac TRACON
Mon 12:33:23 AM 39.0000 -77.1833 142° Southeast 161 185 3,400 -900 Descending Potomac TRACON
Mon 12:34:23 AM 38.9667 -77.1500 142° Southeast 149 171 2,600 -789 Descending Potomac TRACON
Mon 12:35:17 AM 38.9333 -77.1167 142° Southeast 137 158 1,900 -778 Descending Potomac TRACON

Login

Don't have an account? Register now (free) for customized features, flight alerts, and more!